sensor_id;sensor_type;location;lat;lon;timestamp;noise_LAeq;noise_LA_min;noise_LA_max;noise_LA01;noise_LA95
58197;Laerm;43999;51.660;5.616;2023-02-18T00:01:57;56.26;41.75;71.52;;
58197;Laerm;43999;51.660;5.616;2023-02-18T00:04:25;45.55;40.33;61.95;;
58197;Laerm;43999;51.660;5.616;2023-02-18T00:06:52;55.05;41.06;72.94;;
58197;Laerm;43999;51.660;5.616;2023-02-18T00:09:20;54.02;40.89;70.36;;
58197;Laerm;43999;51.660;5.616;2023-02-18T00:11:48;46.12;39.81;65.43;;
58197;Laerm;43999;51.660;5.616;2023-02-18T00:14:17;56.11;39.58;75.23;;
58197;Laerm;43999;51.660;5.616;2023-02-18T00:16:45;54.52;40.62;68.60;;
58197;Laerm;43999;51.660;5.616;2023-02-18T00:19:18;56.12;42.71;67.42;;
58197;Laerm;43999;51.660;5.616;2023-02-18T00:21:48;51.28;40.71;69.49;;
58197;Laerm;43999;51.660;5.616;2023-02-18T00:24:16;56.23;40.89;73.70;;
58197;Laerm;43999;51.660;5.616;2023-02-18T00:26:44;54.83;41.41;67.21;;
58197;Laerm;43999;51.660;5.616;2023-02-18T00:29:14;60.75;42.59;79.04;;
58197;Laerm;43999;51.660;5.616;2023-02-18T00:31:41;59.07;42.69;78.16;;
58197;Laerm;43999;51.660;5.616;2023-02-18T00:34:12;63.18;41.61;81.08;;
58197;Laerm;43999;51.660;5.616;2023-02-18T00:36:41;59.22;41.82;77.95;;
58197;Laerm;43999;51.660;5.616;2023-02-18T00:39:11;59.36;41.61;77.23;;
58197;Laerm;43999;51.660;5.616;2023-02-18T00:41:42;59.63;42.98;77.53;;
58197;Laerm;43999;51.660;5.616;2023-02-18T00:44:10;61.92;43.68;81.98;;
58197;Laerm;43999;51.660;5.616;2023-02-18T00:46:41;54.38;40.89;72.27;;
58197;Laerm;43999;51.660;5.616;2023-02-18T00:49:10;57.18;40.03;71.98;;
58197;Laerm;43999;51.660;5.616;2023-02-18T00:51:42;52.89;40.80;68.54;;
58197;Laerm;43999;51.660;5.616;2023-02-18T00:54:09;53.18;40.33;66.23;;
58197;Laerm;43999;51.660;5.616;2023-02-18T00:56:37;56.27;41.53;69.61;;
58197;Laerm;43999;51.660;5.616;2023-02-18T00:59:05;56.29;40.71;76.71;;
58197;Laerm;43999;51.660;5.616;2023-02-18T01:01:32;51.42;40.43;71.35;;
58197;Laerm;43999;51.660;5.616;2023-02-18T01:04:02;53.99;41.38;69.62;;
58197;Laerm;43999;51.660;5.616;2023-02-18T01:06:31;51.14;40.53;68.75;;
58197;Laerm;43999;51.660;5.616;2023-02-18T01:09:04;54.58;41.22;71.21;;
58197;Laerm;43999;51.660;5.616;2023-02-18T01:11:38;52.17;39.92;74.15;;
58197;Laerm;43999;51.660;5.616;2023-02-18T01:14:06;53.31;41.38;65.28;;
58197;Laerm;43999;51.660;5.616;2023-02-18T01:16:36;51.67;40.98;70.84;;
58197;Laerm;43999;51.660;5.616;2023-02-18T01:19:07;56.51;40.89;72.82;;
58197;Laerm;43999;51.660;5.616;2023-02-18T01:21:37;47.41;39.92;65.68;;
58197;Laerm;43999;51.660;5.616;2023-02-18T01:24:05;49.71;41.53;67.22;;
58197;Laerm;43999;51.660;5.616;2023-02-18T01:26:34;59.45;40.89;81.63;;
58197;Laerm;43999;51.660;5.616;2023-02-18T01:29:02;57.19;41.82;72.41;;
58197;Laerm;43999;51.660;5.616;2023-02-18T01:31:30;56.44;40.53;79.26;;
58197;Laerm;43999;51.660;5.616;2023-02-18T01:34:00;54.54;40.62;71.06;;
58197;Laerm;43999;51.660;5.616;2023-02-18T01:36:28;53.52;40.80;68.54;;
58197;Laerm;43999;51.660;5.616;2023-02-18T01:38:59;55.98;39.81;75.42;;
58197;Laerm;43999;51.660;5.616;2023-02-18T01:41:27;54.84;40.13;69.91;;
58197;Laerm;43999;51.660;5.616;2023-02-18T01:44:23;58.07;39.92;82.07;;
58197;Laerm;43999;51.660;5.616;2023-02-18T01:46:52;53.20;40.13;67.99;;
58197;Laerm;43999;51.660;5.616;2023-02-18T01:49:30;52.71;39.70;78.82;;
58197;Laerm;43999;51.660;5.616;2023-02-18T01:52:08;51.62;39.92;78.26;;
58197;Laerm;43999;51.660;5.616;2023-02-18T01:54:48;57.26;39.46;81.37;;
58197;Laerm;43999;51.660;5.616;2023-02-18T01:57:32;56.74;40.33;79.14;;
58197;Laerm;43999;51.660;5.616;2023-02-18T02:00:15;48.43;40.23;70.80;;
58197;Laerm;43999;51.660;5.616;2023-02-18T02:02:50;56.00;40.03;80.10;;
58197;Laerm;43999;51.660;5.616;2023-02-18T02:05:20;51.56;39.92;73.04;;
58197;Laerm;43999;51.660;5.616;2023-02-18T02:07:53;54.03;39.23;72.86;;
58197;Laerm;43999;51.660;5.616;2023-02-18T02:13:34;56.90;40.53;76.19;;
58197;Laerm;43999;51.660;5.616;2023-02-18T02:16:39;54.33;40.71;67.11;;
58197;Laerm;43999;51.660;5.616;2023-02-18T02:30:07;55.86;40.33;74.12;;
58197;Laerm;43999;51.660;5.616;2023-02-18T02:39:37;49.14;39.34;68.78;;
58197;Laerm;43999;51.660;5.616;2023-02-18T02:52:11;55.58;39.70;75.62;;
58197;Laerm;43999;51.660;5.616;2023-02-18T02:54:42;52.84;39.92;70.37;;
58197;Laerm;43999;51.660;5.616;2023-02-18T03:00:00;50.77;39.08;70.59;;
58197;Laerm;43999;51.660;5.616;2023-02-18T03:03:42;55.32;42.53;82.26;;
58197;Laerm;43999;51.660;5.616;2023-02-18T03:13:17;61.50;42.03;78.40;;
58197;Laerm;43999;51.660;5.616;2023-02-18T03:16:48;58.11;41.38;76.15;;
58197;Laerm;43999;51.660;5.616;2023-02-18T03:19:44;61.73;42.03;81.01;;
58197;Laerm;43999;51.660;5.616;2023-02-18T03:22:26;54.02;41.68;75.25;;
58197;Laerm;43999;51.660;5.616;2023-02-18T03:25:00;55.68;42.59;73.11;;
58197;Laerm;43999;51.660;5.616;2023-02-18T03:27:49;59.56;41.30;80.59;;
58197;Laerm;43999;51.660;5.616;2023-02-18T03:30:50;55.61;41.75;73.00;;
58197;Laerm;43999;51.660;5.616;2023-02-18T03:33:35;58.50;41.46;75.68;;
58197;Laerm;43999;51.660;5.616;2023-02-18T03:36:13;60.50;41.30;84.07;;
58197;Laerm;43999;51.660;5.616;2023-02-18T03:39:19;59.38;41.68;82.32;;
58197;Laerm;43999;51.660;5.616;2023-02-18T03:41:54;53.41;41.30;72.25;;
58197;Laerm;43999;51.660;5.616;2023-02-18T03:44:48;57.34;40.71;76.65;;
58197;Laerm;43999;51.660;5.616;2023-02-18T03:47:29;55.54;41.06;74.18;;
58197;Laerm;43999;51.660;5.616;2023-02-18T03:49:58;52.83;40.43;75.13;;
58197;Laerm;43999;51.660;5.616;2023-02-18T03:52:39;55.46;40.71;77.39;;
58197;Laerm;43999;51.660;5.616;2023-02-18T03:55:08;51.15;40.13;72.03;;
58197;Laerm;43999;51.660;5.616;2023-02-18T03:57:40;60.75;41.89;77.10;;
58197;Laerm;43999;51.660;5.616;2023-02-18T04:00:11;62.23;40.62;82.74;;
58197;Laerm;43999;51.660;5.616;2023-02-18T04:02:40;57.53;40.33;80.27;;
58197;Laerm;43999;51.660;5.616;2023-02-18T04:05:12;57.69;40.98;73.69;;
58197;Laerm;43999;51.660;5.616;2023-02-18T04:07:44;55.24;40.80;74.56;;
58197;Laerm;43999;51.660;5.616;2023-02-18T04:10:14;56.48;40.98;79.95;;
58197;Laerm;43999;51.660;5.616;2023-02-18T04:12:43;52.84;41.14;73.57;;
58197;Laerm;43999;51.660;5.616;2023-02-18T04:15:11;54.89;41.38;75.97;;
58197;Laerm;43999;51.660;5.616;2023-02-18T04:17:47;52.51;41.61;73.20;;
58197;Laerm;43999;51.660;5.616;2023-02-18T04:20:22;53.42;41.06;78.73;;
58197;Laerm;43999;51.660;5.616;2023-02-18T04:22:55;56.64;41.30;79.66;;
58197;Laerm;43999;51.660;5.616;2023-02-18T04:25:27;56.43;41.75;80.61;;
58197;Laerm;43999;51.660;5.616;2023-02-18T04:28:00;53.62;40.53;82.15;;
58197;Laerm;43999;51.660;5.616;2023-02-18T04:30:54;58.19;42.65;82.49;;
58197;Laerm;43999;51.660;5.616;2023-02-18T04:33:40;52.05;41.61;67.62;;
58197;Laerm;43999;51.660;5.616;2023-02-18T04:36:17;56.76;41.82;82.18;;
58197;Laerm;43999;51.660;5.616;2023-02-18T04:38:46;55.27;41.75;74.85;;
58197;Laerm;43999;51.660;5.616;2023-02-18T04:41:18;59.40;41.38;82.43;;
58197;Laerm;43999;51.660;5.616;2023-02-18T04:43:49;58.18;41.53;82.04;;
58197;Laerm;43999;51.660;5.616;2023-02-18T04:46:20;67.88;42.03;92.42;;
58197;Laerm;43999;51.660;5.616;2023-02-18T04:48:54;62.82;41.38;84.89;;
58197;Laerm;43999;51.660;5.616;2023-02-18T04:51:24;56.98;41.89;75.88;;
58197;Laerm;43999;51.660;5.616;2023-02-18T04:53:58;54.23;41.38;77.07;;
58197;Laerm;43999;51.660;5.616;2023-02-18T04:56:34;63.67;42.03;87.71;;
58197;Laerm;43999;51.660;5.616;2023-02-18T04:59:02;65.09;42.03;91.73;;
58197;Laerm;43999;51.660;5.616;2023-02-18T05:01:31;58.96;42.41;81.14;;
58197;Laerm;43999;51.660;5.616;2023-02-18T05:04:07;60.39;43.94;84.20;;
58197;Laerm;43999;51.660;5.616;2023-02-18T05:06:51;59.05;41.75;76.21;;
58197;Laerm;43999;51.660;5.616;2023-02-18T05:09:28;60.09;42.93;82.51;;
58197;Laerm;43999;51.660;5.616;2023-02-18T05:11:59;65.20;41.82;87.90;;
58197;Laerm;43999;51.660;5.616;2023-02-18T05:14:28;57.25;41.06;78.53;;
58197;Laerm;43999;51.660;5.616;2023-02-18T05:17:04;64.38;42.76;94.12;;
58197;Laerm;43999;51.660;5.616;2023-02-18T05:19:33;54.91;42.09;72.90;;
58197;Laerm;43999;51.660;5.616;2023-02-18T05:22:01;61.25;44.31;83.76;;
58197;Laerm;43999;51.660;5.616;2023-02-18T05:24:34;61.27;43.77;82.73;;
58197;Laerm;43999;51.660;5.616;2023-02-18T05:27:21;60.40;43.64;79.00;;
58197;Laerm;43999;51.660;5.616;2023-02-18T05:30:00;64.89;44.87;84.77;;
58197;Laerm;43999;51.660;5.616;2023-02-18T05:32:30;60.85;42.82;76.69;;
58197;Laerm;43999;51.660;5.616;2023-02-18T05:35:07;59.99;42.82;73.40;;
58197;Laerm;43999;51.660;5.616;2023-02-18T05:37:37;66.03;42.22;85.17;;
58197;Laerm;43999;51.660;5.616;2023-02-18T05:40:09;57.84;42.09;80.02;;
58197;Laerm;43999;51.660;5.616;2023-02-18T05:42:40;63.75;44.47;84.02;;
58197;Laerm;43999;51.660;5.616;2023-02-18T05:45:21;61.35;43.39;82.84;;
58197;Laerm;43999;51.660;5.616;2023-02-18T05:48:00;63.23;43.68;86.81;;
58197;Laerm;43999;51.660;5.616;2023-02-18T05:50:41;65.28;44.19;84.87;;
58197;Laerm;43999;51.660;5.616;2023-02-18T05:53:25;62.69;44.76;84.10;;
58197;Laerm;43999;51.660;5.616;2023-02-18T05:55:57;63.00;44.15;81.78;;
58197;Laerm;43999;51.660;5.616;2023-02-18T05:58:33;61.68;43.68;79.92;;
58197;Laerm;43999;51.660;5.616;2023-02-18T06:01:08;62.59;43.63;87.88;;
58197;Laerm;43999;51.660;5.616;2023-02-18T06:03:37;61.32;43.14;88.06;;
58197;Laerm;43999;51.660;5.616;2023-02-18T06:06:16;60.14;44.69;83.07;;
58197;Laerm;43999;51.660;5.616;2023-02-18T06:08:44;62.12;44.51;80.82;;
58197;Laerm;43999;51.660;5.616;2023-02-18T06:11:18;59.68;44.27;77.73;;
58197;Laerm;43999;51.660;5.616;2023-02-18T06:13:49;59.66;44.35;81.02;;
58197;Laerm;43999;51.660;5.616;2023-02-18T06:16:17;62.84;43.99;77.53;;
58197;Laerm;43999;51.660;5.616;2023-02-18T06:18:53;58.01;42.65;74.22;;
58197;Laerm;43999;51.660;5.616;2023-02-18T06:21:25;65.27;44.83;95.08;;
58197;Laerm;43999;51.660;5.616;2023-02-18T06:23:55;64.48;48.16;76.54;;
58197;Laerm;43999;51.660;5.616;2023-02-18T06:26:26;60.40;43.49;76.79;;
58197;Laerm;43999;51.660;5.616;2023-02-18T06:29:02;65.48;45.66;83.52;;
58197;Laerm;43999;51.660;5.616;2023-02-18T06:31:37;64.42;43.58;80.67;;
58197;Laerm;43999;51.660;5.616;2023-02-18T06:34:17;62.14;45.69;79.92;;
58197;Laerm;43999;51.660;5.616;2023-02-18T06:36:53;62.44;44.27;80.67;;
58197;Laerm;43999;51.660;5.616;2023-02-18T06:39:29;62.40;45.60;84.09;;
58197;Laerm;43999;51.660;5.616;2023-02-18T06:41:59;62.80;44.90;86.02;;
58197;Laerm;43999;51.660;5.616;2023-02-18T06:44:29;66.02;44.69;88.55;;
58197;Laerm;43999;51.660;5.616;2023-02-18T06:46:57;64.86;46.45;81.19;;
58197;Laerm;43999;51.660;5.616;2023-02-18T06:49:36;66.32;48.15;89.28;;
58197;Laerm;43999;51.660;5.616;2023-02-18T06:52:10;65.77;49.24;81.93;;
58197;Laerm;43999;51.660;5.616;2023-02-18T06:54:46;63.69;45.97;81.41;;
58197;Laerm;43999;51.660;5.616;2023-02-18T06:57:18;62.41;45.69;79.22;;
58197;Laerm;43999;51.660;5.616;2023-02-18T06:59:49;64.29;44.58;83.47;;
58197;Laerm;43999;51.660;5.616;2023-02-18T07:02:24;64.89;45.91;85.35;;
58197;Laerm;43999;51.660;5.616;2023-02-18T07:04:54;63.76;46.71;85.14;;
58197;Laerm;43999;51.660;5.616;2023-02-18T07:07:22;61.33;49.07;79.35;;
58197;Laerm;43999;51.660;5.616;2023-02-18T07:09:56;61.84;44.58;73.48;;
58197;Laerm;43999;51.660;5.616;2023-02-18T07:12:26;68.48;46.35;92.07;;
58197;Laerm;43999;51.660;5.616;2023-02-18T07:15:16;69.04;45.86;94.21;;
58197;Laerm;43999;51.660;5.616;2023-02-18T07:17:46;67.09;44.62;86.82;;
58197;Laerm;43999;51.660;5.616;2023-02-18T07:20:20;67.29;51.01;85.15;;
58197;Laerm;43999;51.660;5.616;2023-02-18T07:22:52;67.81;51.22;83.91;;
58197;Laerm;43999;51.660;5.616;2023-02-18T07:25:22;68.42;49.59;83.17;;
58197;Laerm;43999;51.660;5.616;2023-02-18T07:27:53;67.39;52.03;83.42;;
58197;Laerm;43999;51.660;5.616;2023-02-18T07:30:26;67.62;49.45;83.23;;
58197;Laerm;43999;51.660;5.616;2023-02-18T07:32:57;66.49;47.93;88.77;;
58197;Laerm;43999;51.660;5.616;2023-02-18T07:35:26;67.62;50.77;84.62;;
58197;Laerm;43999;51.660;5.616;2023-02-18T07:37:56;66.56;52.04;87.45;;
58197;Laerm;43999;51.660;5.616;2023-02-18T07:40:28;64.72;51.91;89.65;;
58197;Laerm;43999;51.660;5.616;2023-02-18T07:43:01;70.06;52.16;87.46;;
58197;Laerm;43999;51.660;5.616;2023-02-18T07:45:46;68.79;49.66;89.69;;
58197;Laerm;43999;51.660;5.616;2023-02-18T07:48:19;67.96;52.01;82.92;;
58197;Laerm;43999;51.660;5.616;2023-02-18T07:50:53;70.47;52.40;97.76;;
58197;Laerm;43999;51.660;5.616;2023-02-18T07:53:29;69.01;53.98;93.61;;
58197;Laerm;43999;51.660;5.616;2023-02-18T07:56:08;71.77;51.09;96.47;;
58197;Laerm;43999;51.660;5.616;2023-02-18T07:58:40;68.67;56.27;79.65;;
58197;Laerm;43999;51.660;5.616;2023-02-18T08:01:20;67.64;53.07;80.94;;
58197;Laerm;43999;51.660;5.616;2023-02-18T08:03:51;68.49;54.08;85.71;;
58197;Laerm;43999;51.660;5.616;2023-02-18T08:06:45;68.42;55.57;80.81;;
58197;Laerm;43999;51.660;5.616;2023-02-18T08:09:35;68.12;52.09;86.83;;
58197;Laerm;43999;51.660;5.616;2023-02-18T08:12:20;67.03;48.52;82.79;;
58197;Laerm;43999;51.660;5.616;2023-02-18T08:15:12;65.78;51.18;81.06;;
58197;Laerm;43999;51.660;5.616;2023-02-18T08:17:57;66.18;47.38;85.09;;
58197;Laerm;43999;51.660;5.616;2023-02-18T08:20:39;67.21;53.26;86.25;;
58197;Laerm;43999;51.660;5.616;2023-02-18T08:23:25;68.45;52.24;91.69;;
58197;Laerm;43999;51.660;5.616;2023-02-18T08:25:57;71.90;51.87;94.80;;
58197;Laerm;43999;51.660;5.616;2023-02-18T08:28:46;68.89;49.92;86.07;;
58197;Laerm;43999;51.660;5.616;2023-02-18T08:31:33;68.47;53.52;83.67;;
58197;Laerm;43999;51.660;5.616;2023-02-18T08:34:10;68.42;50.10;91.24;;
58197;Laerm;43999;51.660;5.616;2023-02-18T08:36:49;66.85;52.34;85.48;;
58197;Laerm;43999;51.660;5.616;2023-02-18T08:39:18;69.04;50.63;87.36;;
58197;Laerm;43999;51.660;5.616;2023-02-18T08:41:56;68.37;52.54;90.07;;
58197;Laerm;43999;51.660;5.616;2023-02-18T08:45:05;68.48;56.22;88.65;;
58197;Laerm;43999;51.660;5.616;2023-02-18T08:47:46;68.05;53.34;87.01;;
58197;Laerm;43999;51.660;5.616;2023-02-18T08:50:42;67.99;56.64;81.11;;
58197;Laerm;43999;51.660;5.616;2023-02-18T08:53:18;66.62;54.08;82.49;;
58197;Laerm;43999;51.660;5.616;2023-02-18T08:55:50;67.03;54.91;78.34;;
58197;Laerm;43999;51.660;5.616;2023-02-18T08:58:20;67.65;55.38;76.38;;
58197;Laerm;43999;51.660;5.616;2023-02-18T09:00:52;71.42;57.37;98.87;;
58197;Laerm;43999;51.660;5.616;2023-02-18T09:03:36;69.07;56.33;88.37;;
58197;Laerm;43999;51.660;5.616;2023-02-18T09:06:14;69.11;58.53;83.54;;
58197;Laerm;43999;51.660;5.616;2023-02-18T09:08:54;66.41;56.02;78.67;;
58197;Laerm;43999;51.660;5.616;2023-02-18T09:14:34;67.61;53.17;89.10;;
58197;Laerm;43999;51.660;5.616;2023-02-18T09:17:26;69.18;56.00;91.53;;
58197;Laerm;43999;51.660;5.616;2023-02-18T09:20:14;68.67;54.66;84.54;;
58197;Laerm;43999;51.660;5.616;2023-02-18T09:22:54;69.82;56.66;86.89;;
58197;Laerm;43999;51.660;5.616;2023-02-18T09:25:57;68.36;58.03;81.37;;
58197;Laerm;43999;51.660;5.616;2023-02-18T09:28:37;70.06;53.41;91.27;;
58197;Laerm;43999;51.660;5.616;2023-02-18T09:31:25;68.94;56.96;85.64;;
58197;Laerm;43999;51.660;5.616;2023-02-18T09:34:02;73.18;55.96;99.04;;
58197;Laerm;43999;51.660;5.616;2023-02-18T09:36:34;68.25;55.31;86.14;;
58197;Laerm;43999;51.660;5.616;2023-02-18T09:39:38;69.52;56.03;89.77;;
58197;Laerm;43999;51.660;5.616;2023-02-18T09:42:41;68.64;57.63;78.69;;
58197;Laerm;43999;51.660;5.616;2023-02-18T09:45:16;67.49;57.23;80.38;;
58197;Laerm;43999;51.660;5.616;2023-02-18T09:48:04;69.16;57.76;88.20;;
58197;Laerm;43999;51.660;5.616;2023-02-18T09:51:21;69.45;57.79;85.97;;
58197;Laerm;43999;51.660;5.616;2023-02-18T09:54:16;68.81;56.61;82.25;;
58197;Laerm;43999;51.660;5.616;2023-02-18T09:57:52;70.86;55.04;96.68;;
58197;Laerm;43999;51.660;5.616;2023-02-18T10:03:27;67.67;56.22;82.09;;
58197;Laerm;43999;51.660;5.616;2023-02-18T10:06:22;68.52;57.04;86.82;;
58197;Laerm;43999;51.660;5.616;2023-02-18T10:09:33;70.18;55.51;95.70;;
58197;Laerm;43999;51.660;5.616;2023-02-18T10:12:25;68.44;53.24;85.95;;
58197;Laerm;43999;51.660;5.616;2023-02-18T10:15:24;67.09;55.30;87.40;;
58197;Laerm;43999;51.660;5.616;2023-02-18T10:18:31;66.38;51.83;85.67;;
58197;Laerm;43999;51.660;5.616;2023-02-18T10:21:32;66.01;54.29;85.04;;
58197;Laerm;43999;51.660;5.616;2023-02-18T10:24:37;66.34;54.75;80.80;;
58197;Laerm;43999;51.660;5.616;2023-02-18T10:27:16;66.95;54.17;87.04;;
58197;Laerm;43999;51.660;5.616;2023-02-18T10:30:59;66.72;53.82;88.16;;
58197;Laerm;43999;51.660;5.616;2023-02-18T10:45:06;65.84;53.16;83.20;;
58197;Laerm;43999;51.660;5.616;2023-02-18T10:48:41;66.61;49.32;85.12;;
58197;Laerm;43999;51.660;5.616;2023-02-18T10:51:22;65.68;53.60;79.82;;
58197;Laerm;43999;51.660;5.616;2023-02-18T10:54:00;68.37;58.40;86.30;;
58197;Laerm;43999;51.660;5.616;2023-02-18T10:56:49;67.32;58.46;83.87;;
58197;Laerm;43999;51.660;5.616;2023-02-18T10:59:39;65.38;55.04;74.07;;
58197;Laerm;43999;51.660;5.616;2023-02-18T11:02:41;66.03;56.25;85.48;;
58197;Laerm;43999;51.660;5.616;2023-02-18T11:05:26;66.02;56.57;77.56;;
58197;Laerm;43999;51.660;5.616;2023-02-18T11:13:14;68.19;57.35;83.72;;
58197;Laerm;43999;51.660;5.616;2023-02-18T11:16:11;70.08;56.12;90.89;;
58197;Laerm;43999;51.660;5.616;2023-02-18T11:18:44;66.18;55.34;78.07;;
58197;Laerm;43999;51.660;5.616;2023-02-18T11:22:28;69.70;56.07;95.84;;
58197;Laerm;43999;51.660;5.616;2023-02-18T11:25:17;66.89;58.41;81.37;;
58197;Laerm;43999;51.660;5.616;2023-02-18T11:28:26;66.78;53.64;75.49;;
58197;Laerm;43999;51.660;5.616;2023-02-18T11:31:15;67.13;56.87;79.92;;
58197;Laerm;43999;51.660;5.616;2023-02-18T11:34:31;68.29;56.08;78.20;;
58197;Laerm;43999;51.660;5.616;2023-02-18T11:37:30;68.16;54.75;80.21;;
58197;Laerm;43999;51.660;5.616;2023-02-18T11:40:55;67.85;57.82;76.17;;
58197;Laerm;43999;51.660;5.616;2023-02-18T11:43:40;68.10;56.98;85.27;;
58197;Laerm;43999;51.660;5.616;2023-02-18T11:46:24;68.38;58.03;85.53;;
58197;Laerm;43999;51.660;5.616;2023-02-18T11:49:29;68.08;59.23;77.40;;
58197;Laerm;43999;51.660;5.616;2023-02-18T11:52:23;69.60;59.49;87.94;;
58197;Laerm;43999;51.660;5.616;2023-02-18T11:55:23;68.62;56.80;80.62;;
58197;Laerm;43999;51.660;5.616;2023-02-18T11:58:03;67.98;57.06;79.88;;
58197;Laerm;43999;51.660;5.616;2023-02-18T12:00:44;67.84;58.49;79.06;;
58197;Laerm;43999;51.660;5.616;2023-02-18T12:03:51;68.43;58.11;78.46;;
58197;Laerm;43999;51.660;5.616;2023-02-18T12:07:16;68.06;60.10;81.92;;
58197;Laerm;43999;51.660;5.616;2023-02-18T12:10:32;67.88;56.75;79.66;;
58197;Laerm;43999;51.660;5.616;2023-02-18T12:13:35;74.37;56.77;105.58;;
58197;Laerm;43999;51.660;5.616;2023-02-18T12:34:16;66.72;55.12;77.03;;
58197;Laerm;43999;51.660;5.616;2023-02-18T12:41:22;67.50;56.89;84.95;;
58197;Laerm;43999;51.660;5.616;2023-02-18T12:44:58;64.93;55.95;74.47;;
58197;Laerm;43999;51.660;5.616;2023-02-18T12:48:41;66.22;54.56;80.33;;
58197;Laerm;43999;51.660;5.616;2023-02-18T12:59:17;65.43;52.91;80.54;;
58197;Laerm;43999;51.660;5.616;2023-02-18T13:16:03;66.24;55.85;79.77;;
58197;Laerm;43999;51.660;5.616;2023-02-18T13:22:06;65.96;56.62;76.85;;
58197;Laerm;43999;51.660;5.616;2023-02-18T13:25:12;65.77;55.02;90.17;;
58197;Laerm;43999;51.660;5.616;2023-02-18T13:41:47;65.72;54.68;85.69;;
58197;Laerm;43999;51.660;5.616;2023-02-18T13:45:25;64.24;54.90;74.70;;
58197;Laerm;43999;51.660;5.616;2023-02-18T13:48:26;65.73;55.17;82.95;;
58197;Laerm;43999;51.660;5.616;2023-02-18T13:51:05;64.31;54.87;77.64;;
58197;Laerm;43999;51.660;5.616;2023-02-18T13:57:28;64.84;54.76;81.37;;
58197;Laerm;43999;51.660;5.616;2023-02-18T14:00:24;64.28;55.80;76.56;;
58197;Laerm;43999;51.660;5.616;2023-02-18T14:03:57;64.49;53.23;79.01;;
58197;Laerm;43999;51.660;5.616;2023-02-18T14:07:37;63.20;52.34;82.44;;
58197;Laerm;43999;51.660;5.616;2023-02-18T14:10:32;63.54;52.93;85.61;;
58197;Laerm;43999;51.660;5.616;2023-02-18T14:13:51;63.80;53.75;82.58;;
58197;Laerm;43999;51.660;5.616;2023-02-18T14:23:42;64.66;54.13;87.19;;
58197;Laerm;43999;51.660;5.616;2023-02-18T14:26:45;65.51;55.05;81.16;;
58197;Laerm;43999;51.660;5.616;2023-02-18T14:29:38;64.08;52.17;77.18;;
58197;Laerm;43999;51.660;5.616;2023-02-18T14:32:11;61.91;53.08;75.46;;
58197;Laerm;43999;51.660;5.616;2023-02-18T14:38:55;67.03;54.55;91.19;;
58197;Laerm;43999;51.660;5.616;2023-02-18T14:46:07;64.51;53.92;84.09;;
58197;Laerm;43999;51.660;5.616;2023-02-18T14:49:01;63.08;50.18;76.41;;
58197;Laerm;43999;51.660;5.616;2023-02-18T14:51:35;64.35;51.36;80.90;;
58197;Laerm;43999;51.660;5.616;2023-02-18T14:54:16;64.62;53.23;82.45;;
58197;Laerm;43999;51.660;5.616;2023-02-18T14:57:12;64.09;50.87;80.79;;
58197;Laerm;43999;51.660;5.616;2023-02-18T14:59:43;64.87;54.30;80.21;;
58197;Laerm;43999;51.660;5.616;2023-02-18T15:02:26;63.46;52.04;77.20;;
58197;Laerm;43999;51.660;5.616;2023-02-18T15:05:28;63.44;52.57;74.84;;
58197;Laerm;43999;51.660;5.616;2023-02-18T15:11:05;66.39;54.12;88.12;;
58197;Laerm;43999;51.660;5.616;2023-02-18T15:13:54;62.43;51.64;73.09;;
58197;Laerm;43999;51.660;5.616;2023-02-18T15:16:39;63.38;53.69;70.99;;
58197;Laerm;43999;51.660;5.616;2023-02-18T15:19:18;63.86;53.60;82.12;;
58197;Laerm;43999;51.660;5.616;2023-02-18T15:21:56;61.94;52.08;72.11;;
58197;Laerm;43999;51.660;5.616;2023-02-18T15:24:37;64.68;50.77;74.69;;
58197;Laerm;43999;51.660;5.616;2023-02-18T15:27:37;65.30;51.88;85.49;;
58197;Laerm;43999;51.660;5.616;2023-02-18T15:30:37;63.94;54.77;78.82;;
58197;Laerm;43999;51.660;5.616;2023-02-18T15:33:23;62.53;49.55;80.98;;
58197;Laerm;43999;51.660;5.616;2023-02-18T15:36:13;64.01;52.24;85.16;;
58197;Laerm;43999;51.660;5.616;2023-02-18T15:38:58;63.50;53.40;76.49;;
58197;Laerm;43999;51.660;5.616;2023-02-18T15:41:40;64.19;55.34;76.91;;
58197;Laerm;43999;51.660;5.616;2023-02-18T15:44:24;62.78;50.61;77.13;;
58197;Laerm;43999;51.660;5.616;2023-02-18T15:47:09;65.76;55.30;83.00;;
58197;Laerm;43999;51.660;5.616;2023-02-18T15:50:02;63.50;52.41;74.88;;
58197;Laerm;43999;51.660;5.616;2023-02-18T15:52:48;63.82;51.54;76.41;;
58197;Laerm;43999;51.660;5.616;2023-02-18T15:55:46;61.80;51.60;82.49;;
58197;Laerm;43999;51.660;5.616;2023-02-18T15:59:15;63.54;48.03;79.95;;
58197;Laerm;43999;51.660;5.616;2023-02-18T16:02:22;63.12;51.44;72.12;;
58197;Laerm;43999;51.660;5.616;2023-02-18T16:05:26;63.32;50.36;74.63;;
58197;Laerm;43999;51.660;5.616;2023-02-18T16:09:10;63.45;49.91;76.63;;
58197;Laerm;43999;51.660;5.616;2023-02-18T16:11:46;63.06;49.16;77.60;;
58197;Laerm;43999;51.660;5.616;2023-02-18T16:14:47;63.26;52.42;73.62;;
58197;Laerm;43999;51.660;5.616;2023-02-18T16:17:31;62.83;50.39;74.37;;
58197;Laerm;43999;51.660;5.616;2023-02-18T16:20:34;63.34;50.14;76.70;;
58197;Laerm;43999;51.660;5.616;2023-02-18T16:23:39;64.21;51.22;80.10;;
58197;Laerm;43999;51.660;5.616;2023-02-18T16:26:27;66.35;52.46;87.38;;
58197;Laerm;43999;51.660;5.616;2023-02-18T16:29:10;62.65;51.87;73.44;;
58197;Laerm;43999;51.660;5.616;2023-02-18T16:31:42;63.81;53.54;78.58;;
58197;Laerm;43999;51.660;5.616;2023-02-18T16:34:15;62.91;52.57;74.01;;
58197;Laerm;43999;51.660;5.616;2023-02-18T16:36:50;64.77;52.91;78.71;;
58197;Laerm;43999;51.660;5.616;2023-02-18T16:39:38;61.58;50.92;75.07;;
58197;Laerm;43999;51.660;5.616;2023-02-18T16:42:13;62.60;51.09;78.03;;
58197;Laerm;43999;51.660;5.616;2023-02-18T16:44:41;62.19;50.22;75.67;;
58197;Laerm;43999;51.660;5.616;2023-02-18T16:47:15;65.15;51.12;79.89;;
58197;Laerm;43999;51.660;5.616;2023-02-18T16:50:18;63.38;51.28;80.03;;
58197;Laerm;43999;51.660;5.616;2023-02-18T16:52:52;60.22;47.76;70.43;;
58197;Laerm;43999;51.660;5.616;2023-02-18T16:55:41;62.56;49.69;75.57;;
58197;Laerm;43999;51.660;5.616;2023-02-18T16:58:12;68.30;50.17;93.92;;
58197;Laerm;43999;51.660;5.616;2023-02-18T17:00:48;61.74;50.23;80.66;;
58197;Laerm;43999;51.660;5.616;2023-02-18T17:03:28;62.39;50.98;71.61;;
58197;Laerm;43999;51.660;5.616;2023-02-18T17:05:57;61.00;48.94;76.56;;
58197;Laerm;43999;51.660;5.616;2023-02-18T17:08:29;64.03;47.50;92.95;;
58197;Laerm;43999;51.660;5.616;2023-02-18T17:10:59;62.59;52.76;73.48;;
58197;Laerm;43999;51.660;5.616;2023-02-18T17:13:29;59.88;47.83;77.06;;
58197;Laerm;43999;51.660;5.616;2023-02-18T17:16:07;63.28;54.77;76.35;;
58197;Laerm;43999;51.660;5.616;2023-02-18T17:18:54;62.65;51.06;75.77;;
58197;Laerm;43999;51.660;5.616;2023-02-18T17:21:33;62.13;51.41;77.68;;
58197;Laerm;43999;51.660;5.616;2023-02-18T17:24:06;63.32;50.31;77.02;;
58197;Laerm;43999;51.660;5.616;2023-02-18T17:26:42;62.09;50.28;77.37;;
58197;Laerm;43999;51.660;5.616;2023-02-18T17:29:10;62.58;52.01;71.88;;
58197;Laerm;43999;51.660;5.616;2023-02-18T17:31:56;63.23;51.37;77.55;;
58197;Laerm;43999;51.660;5.616;2023-02-18T17:34:30;62.75;53.59;73.88;;
58197;Laerm;43999;51.660;5.616;2023-02-18T17:36:59;61.38;50.03;70.39;;